NWS Home NWS Lubbock West Texas Mesonet Day over Day changes as of 0944 PM, Sun Sep 15, 2019

Latest   N   C   S   Daily Sum   3hrΔ   24hrΔ   Soil Data 
Site Map   24hr Precip   72hr Precip   Google Plot


Station Time of Last Temp Today Temp Yesterday Delta-T Dewpoint Today Dewpoint Yesterday Delta-Td Delta-Pressure (mB)
Reese Center  09:40 PM 77.2 74.9 2.3 54.2 58.9 -4.8 -1.9
Abernathy  09:40 PM 71.3 72.3 -1 52.9 58.7 -5.8 -1.9
Plainview  09:40 PM 73.6 74.9 -1.3 55.5 60.4 -4.9 -1.8
Tahoka  09:40 PM 78.3 75.1 3.2 52.5 56.7 -4.2 -1.9
Slaton  09:40 PM 73.6 73.5 0.1 55.8 60.3 -4.5 -1.8
Levelland  09:40 PM 70.4 71 -0.6 52.8 56.1 -3.4 -1.9
Roaring Springs  09:40 PM 78.3 77 1.3 58 61.7 -3.8 -1.9
Floydada  09:40 PM 71.6 72 -0.4 55.7 58.9 -3.2 -1.8
Ralls  09:40 PM 73.5 73 0.5 52.8 57.2 -4.5 -1.9
Brownfield  09:40 PM 74.2 74.9 -0.6 53.3 58.2 -4.9 -1.9
Muleshoe  09:40 PM 68.6 71 -2.4 51.1 57 -5.9 -1.6
Morton  09:40 PM 73.3 72.5 0.8 50.6 56.3 -5.7 -1.9
O'Donnell  09:40 PM 77.3 76 1.3 52.2 53.3 -1.1 -1.9
Seagraves  09:40 PM 74 74.7 -0.8 52.8 56.2 -3.4 -1.9
Amherst  09:40 PM 70.1 70.2 -0.1 54.5 58.7 -4.2 -1.8
Plains  09:40 PM 71.6 71.9 -0.3 51.4 56.5 -5.1 -1.9
Lamesa  09:40 PM 76.7 75.8 0.8 51.9 54.1 -2.2 -1.9
Hart  09:40 PM 69 68.8 0.2 56.4 59.6 -3.2 -1.7
Friona  09:40 PM 68.2 72.8 -4.6 51.9 55.1 -3.3 -1.5
Dimmitt  09:40 PM 70.2 69.2 1 56.6 60.3 -3.7 -1.6
Tulia  09:40 PM 70.8 70.8 -0 56.5 60.4 -3.9 -1.8
Silverton  09:40 PM 70.1 70.1 -0 54.8 58.2 -3.5 -1.8
Post  09:40 PM 78.7 77.9 0.8 49.4 54.4 -5 -1.9
Seminole  09:40 PM 73 73.3 -0.3 50.9 55.8 -4.8 -1.9
Gail  09:40 PM 75.7 75.8 -0.1 50.9 54.1 -3.2 -1.9
White River Lake  09:40 PM 78.4 77.7 0.8 53 57.6 -4.6 -1.9
Graham  09:40 PM 79.9 79.5 0.4 49.7 53.2 -3.4 -1.9
Sundown  09:40 PM 69 70.4 -1.4 50.8 54.6 -3.9 -1.9
Anton  09:40 PM 74.9 71.9 3 52.6 57.3 -4.7 -1.7
Fluvanna  09:40 PM 77.1 76 1.2 52.3 55 -2.7 -1.9
Spur  09:40 PM 79.5 77.8 1.7 53.5 58.4 -4.9 -2
Northwest Lubbock  09:40 PM 78.2 77.1 1.1 51 55.8 -4.8 -1.9
Guthrie  09:40 PM 80.8 80.3 0.5 52.4 58.2 -5.8 -2
Clarendon  09:40 PM 80.4 78.1 2.3 50 56.4 -6.4 -1.6
Paducah  09:40 PM 78.2 76.2 2 56.6 61.6 -5 -1.8
Snyder  09:35 PM 77 76.4 0.6 55.9 60.3 -4.4 -2
Memphis  09:40 PM 78.6 77.7 1 54.4 61.6 -7.2 -1.8
Jayton  09:40 PM 80.5 79.8 0.7 52.5 58 -5.4 -2
Pampa  09:40 PM 74.2 74.1 0.1 52.4 56.6 -4.2 -1.5
Aspermont  09:40 PM 78.5 80.6 -2.1 54.8 58.1 -3.3 -2
Hereford  09:40 PM 73 73.4 -0.3 52.6 56 -3.4 -1.6
Goodlett  09:40 PM 80.6 80.4 0.2 60.5 62.4 -1.9 -1.7
McLean  09:40 PM 76.4 78 -1.6 52.9 58.2 -5.3 -1.4
Denver City  09:40 PM 69.5 70.8 -1.3 51.1 55.7 -4.6 -1.9
Lake Alan Henry  09:40 PM 79.8 79 0.8 57.2 60.6 -3.4 -1.9
Wolfforth  09:40 PM 72.7 72.8 -0.1 54.5 59.9 -5.3 -1.9
Andrews  09:40 PM 76.9 75.9 1 50.4 55.4 -5 -1.9
Turkey  09:40 PM 76.2 76.8 -0.6 58.9 63.2 -4.4 -1.9
Childress  09:40 PM 78 76.6 1.4 58.5 62.2 -3.6 -1.9
Tatum  09:40 PM 68.6 70.8 -2.2 51.7 56.7 -5.1 -2
Northfield  09:40 PM 80.6 79.6 0.9 54.8 57.9 -3.1 -2
Dora  09:40 PM 70.8 71.6 -0.8 50 54 -4 -1.9
Northwest San Angelo  09:40 PM 77.2 77.2 -0 53.9 52.5 1.4 -2.1
Saint Lawrence  09:40 PM 75.7 76.7 -1 53.1 56.3 -3.2 -2
Haskell  09:40 PM 81.8 83 -1.2 58.1 59.6 -1.5 -2.1
Wall  09:40 PM 78.3 75 3.3 57.7 57.3 0.4 -2.1
Seymour  09:40 PM 78.5 79.1 -0.6 61.4 63.7 -2.3 -2.1
Knox City  09:40 PM 82.7 83 -0.3 57.8 60.1 -2.3 -2.2
Guadalupe Mtns Park  09:40 PM 72.1 72.1 0.1 47.1 48.6 -1.5 -2.1
Caprock Canyons   09:40 PM 73.6 75.5 -1.9 57.4 60.6 -3.2 -1.8
Odell  09:40 PM 82.5 81.1 1.4 63.6 63.6 0 -1.8
Coyanosa  09:40 PM 78.1 79 -0.9 50.8 56.6 -5.8 -2
Big Lake  09:40 PM 79.5 79.5 0 53.4 55 -1.6 -1.9
Junction  09:40 PM 83.2 71.9 11.3 57 56 1 -1.9
Hobbs  09:40 PM 76.7 77.4 -0.7 45.9 52.7 -6.8 -2.1
Canadian  09:40 PM 76.1 79.8 -3.7 55.9 60.1 -4.2 -1
Palo Duro Canyon State Park Rim  09:40 PM 77.1 76.8 0.3 51.8 57.5 -5.6 -1.7
Bootleg  09:40 PM 72.2 72.8 -0.6 47.2 53.8 -6.6 -1.5
Sterling City  09:40 PM 75.2 74.8 0.4 51.8 53.4 -1.7 -1.9
Mertzon  09:40 PM 77.5 77.1 0.3 54.1 53.8 0.3 -1.9
Persimmon Gap  09:40 PM 82 82.1 -0.1 51.4 53 -1.6 -1.9
Weinert  09:40 PM 80 80 0 59.2 62.3 -3.1 -2.1
Claude 12 Southwest  09:40 PM 75.1 77.6 -2.5 52 57 -5 -1.7
Amarillo 7 South Southeast  09:40 PM 71.9 74.5 -2.6 51 55.8 -4.8 -1.6
Umbarger  09:40 PM 69.7 75.4 -5.8 49.9 56.6 -6.6 -1.7
Lomax  09:40 PM 74.2 74.8 -0.7 60.9 66 -5.2 -1.9
Amarillo 9 North Northeast  09:40 PM 72.5 77.1 -4.5 51.7 56.8 -5.1 -1.4
Aiken  09:40 PM 68.7 69 -0.3 58.7 62 -3.4 -1.8
Sweetwater  09:40 PM 76.4 75.8 0.6 57.9 58 -0.1 -2
Dozier  09:40 PM 78.3 76.9 1.4 57.1 62 -5 -1.6
Amarillo 15 North Northwest  09:40 PM 74.9 78.2 -3.3 52 57.4 -5.3 -1.3
Menard  09:40 PM 76.2 73.5 2.6 58.3 55.5 2.8 -2
Tarzan  09:40 PM 79.1 77.7 1.3 53.1 56.5 -3.4 -2.1
Goodnight  09:40 PM 74 78.2 -4.3 53.8 58.9 -5.1 -1.5
Boys Ranch   09:40 PM 75.2 79.3 -4.1 50.4 57.2 -6.8 -1.2
Fort McKavett  09:40 PM 78.5 76.5 2 56.4 55.3 1.2 -2.1
Fort Chadbourne  09:40 PM 79 79.4 -0.4 56.5 56 0.5 -2
Palo Duro Canyon State Park Floor  09:40 PM 79.3 79.8 -0.5 53.7 59.2 -5.5 -1.8
Fort Lancaster  09:40 PM 82.6 82.5 0.1 53.7 55.8 -2.1 -1.9
Dell City 1N  09:40 PM 75.7 78.8 -3.1 60.2 52.4 7.8 -2.2
Clyde  09:40 PM 79.9 78.7 1.2 59.2 58.1 1.2 -2
Snyder SSW  09:40 PM 77.3 77 0.3 58 61.4 -3.5 -1.9
Panhandle  09:40 PM 68 72.7 -4.7 53.6 57.9 -4.3 -1.5
Vigo Park  09:40 PM 72.2 71.5 0.6 58.2 61.8 -3.6 -1.7
Welch  09:40 PM 71.5 71.5 -0 55.2 60.5 -5.2 -1.9
Throckmorton  09:40 PM 78.9 78.4 0.5 63.5 64 -0.5 -2.1
Sierra Blanca  09:40 PM 77.1 75.8 1.3 55.6 56.1 -0.5 -1.6
Fort Lewis CO  09:40 PM 53.5 50.4 3.1 49.1 39.3 9.8 -1.1
New Home  09:40 PM 72.1 73 -0.9 57.8 60.4 -2.6 -1.8
McCamey  09:40 PM 81.6 84 -2.4 53.9 56.6 -2.7 -2.2
Stamford  09:40 PM 81.4 79.1 2.3 55.7 57.5 -1.8 -2.2
Crowell  09:40 PM 80.8 78.9 1.9 62.5 64.4 -1.9 -2
Stinnett  09:40 PM 77.8 78.4 -0.6 51.4 57.4 -6 -1.2
Colorado City  09:40 PM 75.8 74.3 1.5 59.2 64.7 -5.5 -2
Happy  09:40 PM 67.2 69.4 -2.2 57.7 60.3 -2.6 -1.8
Endee  09:40 PM 74.5 76.5 -2 49.7 54.8 -5.1 -1.4
JA Ranch  09:40 PM 71.3 72.5 -1.2 59.2 62.9 -3.7 -1.8
Adrian  09:40 PM 72.2 74.2 -2 50 54.9 -4.8 -1.4
Lesley  09:40 PM 78.6 78.8 -0.2 56 61.1 -5.1 -1.8
Earth  09:40 PM 68.5 70.3 -1.8 54.4 60.5 -6.1 -1.6
Van Horn  09:40 PM 78.6 80.6 -2 52.4 52.1 0.4 -2
Rotan  09:40 PM 77.3 77.6 -0.3 56.8 61.8 -5 -2
Fritch  09:40 PM 78.1 79.1 -1 50.3 56.9 -6.6 -1.2
Estelline  09:40 PM 80.2 79.3 0.9 59.9 62.3 -2.4 -1.8
Crane  09:40 PM 79.9 81.1 -1.2 51.6 56 -4.4 -2.1
Hackberry  09:40 PM 82.1 80.7 1.4 59.9 61.1 -1.2 -2
Romero 11 SSW  09:40 PM 75.4 76.7 -1.3 50.2 57.1 -6.8 -1.4
Palo Duro Reservoir 1NW  09:40 PM 75.2 79.4 -4.1 53.1 56.9 -3.8 -0.8
South Plains 3ENE  09:40 PM 71.3 68.9 2.3 56.7 62.5 -5.8 -1.8
Lake McClellan 2NW  09:40 PM 76.3 78 -1.7 52.1 57.1 -5 -1.5
Segovia 7SSW  09:40 PM 79.3 79.1 0.2 56.8 52.8 4 -1.9
Castolon 1NW BBNP  09:40 PM 89.5 88.1 1.4 52.8 50.8 2 -2.1
Smyer  09:40 PM 77 74.8 2.2 53.6 57.2 -3.6 -1.8
Doole 3WNW  09:40 PM 78.2 76.6 1.7 57 56.4 0.6 -2.1
Stratford  09:40 PM 71.9 77 -5.1 52.3 56.8 -4.4 -1
Olton  09:40 PM 70.9 70.1 0.8 52.7 58.9 -6.3 -1.9

West Texas Mesonet Home   Site Map/Menu  NWS Lubbock Soil Data  Daily Summary Page  24hr Precip  72hr Precip  Google Plot